createdAt,value
2019-05-29T00:01:21.683Z,9.90
2019-05-29T00:03:49.806Z,9.89
2019-05-29T00:06:18.657Z,9.85
2019-05-29T00:08:47.102Z,9.80
2019-05-29T00:11:15.596Z,9.79
2019-05-29T00:13:44.092Z,9.81
2019-05-29T00:16:12.619Z,9.84
2019-05-29T00:18:41.103Z,9.84
2019-05-29T00:21:11.523Z,9.84
2019-05-29T00:23:39.885Z,9.87
2019-05-29T00:26:08.391Z,9.92
2019-05-29T00:28:36.911Z,9.88
2019-05-29T00:31:05.839Z,9.88
2019-05-29T00:33:34.425Z,9.88
2019-05-29T00:36:02.915Z,9.87
2019-05-29T00:38:31.417Z,9.85
2019-05-29T00:40:59.909Z,9.85
2019-05-29T00:43:28.446Z,9.86
2019-05-29T00:45:56.943Z,9.86
2019-05-29T00:48:25.428Z,9.89
2019-05-29T00:50:53.931Z,9.90
2019-05-29T00:53:22.440Z,9.91
2019-05-29T00:55:50.952Z,9.91
2019-05-29T00:58:19.924Z,9.93
2019-05-29T01:00:48.573Z,9.86
2019-05-29T01:03:17.904Z,9.82
2019-05-29T01:05:46.437Z,9.77
2019-05-29T01:08:14.936Z,9.77
2019-05-29T01:10:43.497Z,9.76
2019-05-29T01:13:13.141Z,9.79
2019-05-29T01:15:41.746Z,9.81
2019-05-29T01:18:11.457Z,9.83
2019-05-29T01:20:40.227Z,9.84
2019-05-29T01:23:08.706Z,9.83
2019-05-29T01:25:37.216Z,9.83
2019-05-29T01:28:05.771Z,9.83
2019-05-29T01:30:34.283Z,9.81
2019-05-29T01:33:02.811Z,9.80
2019-05-29T01:35:31.323Z,9.77
2019-05-29T01:37:59.811Z,9.75
2019-05-29T01:40:29.728Z,9.75
2019-05-29T01:42:58.318Z,9.75
2019-05-29T01:45:27.680Z,9.74
2019-05-29T01:47:56.208Z,9.72
2019-05-29T01:50:24.718Z,9.74
2019-05-29T01:52:53.208Z,9.75
2019-05-29T01:55:21.765Z,9.74
2019-05-29T01:57:50.304Z,9.74
2019-05-29T02:00:20.141Z,9.73
2019-05-29T02:02:48.721Z,9.69
2019-05-29T02:05:17.849Z,9.63
2019-05-29T02:07:46.382Z,9.58
2019-05-29T02:10:16.003Z,9.57
2019-05-29T02:12:44.514Z,9.54
2019-05-29T02:15:24.821Z,9.53
2019-05-29T02:17:44.018Z,9.56
2019-05-29T02:20:12.752Z,9.56
2019-05-29T02:22:41.257Z,9.59
2019-05-29T02:25:09.995Z,9.60
2019-05-29T02:27:38.478Z,9.59
2019-05-29T02:30:08.364Z,9.58
2019-05-29T02:32:37.077Z,9.58
2019-05-29T02:35:06.705Z,9.63
2019-05-29T02:37:35.247Z,9.60
2019-05-29T02:40:05.071Z,9.55
2019-05-29T02:42:33.659Z,9.49
2019-05-29T02:45:02.498Z,9.51
2019-05-29T02:47:30.998Z,9.53
2019-05-29T02:49:59.528Z,9.51
2019-05-29T02:52:28.697Z,9.50
2019-05-29T02:54:58.336Z,9.47
2019-05-29T02:57:27.115Z,9.45
2019-05-29T02:59:55.596Z,9.43
2019-05-29T03:02:25.532Z,9.42
2019-05-29T03:04:54.160Z,9.36
2019-05-29T03:07:24.317Z,9.34
2019-05-29T03:09:52.858Z,9.31
2019-05-29T03:12:22.782Z,9.30
2019-05-29T03:14:51.332Z,9.29
2019-05-29T03:17:19.835Z,9.31
2019-05-29T03:19:48.424Z,9.30
2019-05-29T03:22:16.926Z,9.30
2019-05-29T03:24:45.422Z,9.31
2019-05-29T03:27:13.914Z,9.34
2019-05-29T03:29:42.399Z,9.38
2019-05-29T03:32:14.136Z,9.37
2019-05-29T03:34:46.388Z,9.33
2019-05-29T03:37:11.371Z,9.32
2019-05-29T03:39:39.872Z,9.31
2019-05-29T03:42:08.379Z,9.31
2019-05-29T03:44:36.944Z,9.31
2019-05-29T03:47:06.241Z,9.32
2019-05-29T03:49:35.210Z,9.32
2019-05-29T03:52:04.192Z,9.33
2019-05-29T03:54:34.932Z,9.32
2019-05-29T03:57:02.941Z,9.32
2019-05-29T03:59:32.700Z,9.31
2019-05-29T04:02:01.301Z,9.31
2019-05-29T04:04:31.379Z,9.31
2019-05-29T04:07:00.017Z,9.30
2019-05-29T04:09:29.205Z,9.27
2019-05-29T04:11:58.069Z,9.26
2019-05-29T04:14:27.554Z,9.25
2019-05-29T04:17:00.288Z,9.24
2019-05-29T04:19:30.540Z,9.23
2019-05-29T04:22:03.270Z,9.27
2019-05-29T04:24:34.010Z,9.24
2019-05-29T04:27:04.118Z,9.26
2019-05-29T04:29:34.195Z,9.34
2019-05-29T04:32:02.776Z,9.30
2019-05-29T04:34:32.251Z,9.29
2019-05-29T04:37:01.501Z,9.29
2019-05-29T04:39:30.624Z,9.26
2019-05-29T04:41:59.176Z,9.32
2019-05-29T04:44:28.831Z,9.32
2019-05-29T04:47:10.340Z,9.29
2019-05-29T04:49:29.272Z,9.22
2019-05-29T04:51:57.811Z,9.25
2019-05-29T04:54:26.291Z,9.20
2019-05-29T04:56:54.746Z,9.17
2019-05-29T04:59:23.253Z,9.19
2019-05-29T05:01:51.725Z,9.20
2019-05-29T05:04:20.248Z,9.20
2019-05-29T05:06:48.761Z,9.20
2019-05-29T05:09:17.322Z,9.18
2019-05-29T05:11:45.782Z,9.09
2019-05-29T05:14:14.368Z,9.09
2019-05-29T05:16:42.934Z,9.05
2019-05-29T05:19:11.401Z,9.10
2019-05-29T05:21:40.320Z,9.09
2019-05-29T05:24:08.933Z,9.11
2019-05-29T05:26:38.419Z,9.12
2019-05-29T05:29:07.050Z,9.09
2019-05-29T05:31:36.484Z,9.07
2019-05-29T05:34:05.199Z,9.08
2019-05-29T05:36:34.675Z,9.03
2019-05-29T05:39:03.640Z,8.95
2019-05-29T05:41:32.721Z,8.92
2019-05-29T05:44:01.284Z,8.88
2019-05-29T05:46:30.930Z,8.86
2019-05-29T05:48:59.483Z,8.85
2019-05-29T05:51:27.936Z,8.86
2019-05-29T05:53:56.440Z,8.86
2019-05-29T05:56:24.946Z,8.88
2019-05-29T05:58:53.439Z,8.93
2019-05-29T06:01:21.911Z,8.93
2019-05-29T06:03:50.564Z,8.95
2019-05-29T06:06:19.294Z,8.93
2019-05-29T06:08:47.776Z,8.87
2019-05-29T06:11:16.287Z,8.85
2019-05-29T06:13:44.749Z,8.85
2019-05-29T06:16:13.307Z,8.84
2019-05-29T06:18:43.022Z,8.82
2019-05-29T06:21:11.779Z,8.85
2019-05-29T06:23:41.136Z,8.87
2019-05-29T06:26:09.631Z,8.91
2019-05-29T06:28:39.146Z,8.92
2019-05-29T06:31:07.607Z,8.97
2019-05-29T06:33:37.286Z,9.04
2019-05-29T06:36:05.930Z,8.97
2019-05-29T06:38:35.590Z,9.00
2019-05-29T06:41:04.203Z,8.97
2019-05-29T06:43:33.786Z,9.00
2019-05-29T06:46:02.327Z,8.95
2019-05-29T06:48:42.472Z,8.93
2019-05-29T06:51:01.312Z,8.96
2019-05-29T06:53:29.885Z,9.00
2019-05-29T06:55:59.414Z,9.03
2019-05-29T06:58:28.689Z,9.04
2019-05-29T07:00:57.202Z,9.11
2019-05-29T07:03:25.676Z,9.10
2019-05-29T07:05:54.227Z,9.13
2019-05-29T07:08:37.697Z,9.15
2019-05-29T07:10:52.947Z,9.10
2019-05-29T07:13:21.438Z,9.16
2019-05-29T07:15:49.987Z,9.13
2019-05-29T07:18:18.449Z,9.13
2019-05-29T07:20:47.091Z,9.21
2019-05-29T07:23:15.517Z,9.21
2019-05-29T07:25:45.487Z,9.23
2019-05-29T07:28:14.201Z,9.24
2019-05-29T07:30:48.307Z,9.23
2019-05-29T07:33:12.983Z,9.28
2019-05-29T07:35:41.479Z,9.37
2019-05-29T07:38:09.957Z,9.48
2019-05-29T07:40:39.087Z,9.52
2019-05-29T07:43:08.654Z,9.57
2019-05-29T07:45:37.822Z,9.57
2019-05-29T07:48:06.467Z,9.60
2019-05-29T07:50:35.043Z,9.64
2019-05-29T07:53:03.594Z,9.69
2019-05-29T07:55:32.147Z,9.75
2019-05-29T07:58:00.634Z,9.69
2019-05-29T08:00:35.871Z,9.72
2019-05-29T08:02:59.402Z,9.68
2019-05-29T08:05:27.958Z,9.67
2019-05-29T08:07:56.497Z,9.67
2019-05-29T08:10:25.128Z,9.70
2019-05-29T08:12:55.778Z,9.76
2019-05-29T08:15:23.976Z,9.87
2019-05-29T08:17:52.487Z,9.84
2019-05-29T08:20:21.059Z,9.78
2019-05-29T08:22:50.537Z,9.81
2019-05-29T08:25:19.587Z,9.79
2019-05-29T08:27:48.918Z,9.81
2019-05-29T08:30:19.244Z,9.90
2019-05-29T08:32:49.104Z,9.91
2019-05-29T08:35:17.814Z,9.95
2019-05-29T08:37:47.020Z,9.94
2019-05-29T08:40:15.899Z,9.93
2019-05-29T08:42:45.228Z,9.93
2019-05-29T08:45:14.023Z,9.94
2019-05-29T08:47:43.501Z,9.98
2019-05-29T08:50:18.605Z,10.04
2019-05-29T08:52:43.833Z,10.11
2019-05-29T08:55:13.868Z,10.16
2019-05-29T08:57:42.667Z,10.31
2019-05-29T09:00:13.043Z,10.39
2019-05-29T09:02:42.550Z,10.36
2019-05-29T09:05:11.579Z,10.37
2019-05-29T09:07:40.082Z,10.46
2019-05-29T09:10:09.183Z,10.56
2019-05-29T09:12:37.784Z,10.63
2019-05-29T09:15:09.200Z,10.66
2019-05-29T09:17:38.029Z,10.77
2019-05-29T09:20:07.542Z,10.88
2019-05-29T09:22:36.213Z,11.00
2019-05-29T09:25:07.428Z,10.98
2019-05-29T09:27:35.935Z,10.97
2019-05-29T09:30:05.961Z,10.98
2019-05-29T09:32:49.513Z,11.13
2019-05-29T09:35:05.588Z,11.38
2019-05-29T09:37:34.065Z,11.74
2019-05-29T09:40:02.688Z,12.03
2019-05-29T09:42:31.182Z,12.24
2019-05-29T09:44:59.658Z,12.12
2019-05-29T09:47:28.160Z,12.03
2019-05-29T09:49:56.629Z,11.92
2019-05-29T09:52:25.118Z,11.73
2019-05-29T09:54:54.676Z,11.53
2019-05-29T09:57:24.049Z,11.35
2019-05-29T09:59:53.990Z,11.15
2019-05-29T10:02:22.862Z,11.07
2019-05-29T10:04:51.383Z,11.01
2019-05-29T10:07:21.490Z,10.96
2019-05-29T10:09:50.052Z,10.97
2019-05-29T10:12:18.724Z,10.94
2019-05-29T10:14:50.628Z,10.89
2019-05-29T10:17:17.599Z,10.86
2019-05-29T10:19:46.088Z,10.87
2019-05-29T10:22:14.579Z,10.92
2019-05-29T10:24:43.086Z,10.94
2019-05-29T10:27:11.682Z,10.95
2019-05-29T10:29:40.235Z,11.01
2019-05-29T10:32:08.748Z,11.15
2019-05-29T10:34:37.262Z,11.21
2019-05-29T10:37:05.817Z,11.26
2019-05-29T10:39:34.340Z,11.37
2019-05-29T10:42:02.854Z,11.40
2019-05-29T10:44:31.494Z,11.42
2019-05-29T10:46:59.993Z,11.40
2019-05-29T10:49:28.625Z,11.43
2019-05-29T10:52:11.999Z,11.48
2019-05-29T10:54:27.338Z,11.48
2019-05-29T10:56:55.858Z,11.50
2019-05-29T10:59:24.334Z,11.52
2019-05-29T11:01:53.774Z,11.56
2019-05-29T11:04:22.439Z,11.57
2019-05-29T11:06:52.459Z,11.58
2019-05-29T11:09:21.359Z,11.57
2019-05-29T11:11:50.671Z,11.64
2019-05-29T11:14:19.323Z,11.75
2019-05-29T11:16:49.050Z,11.84
2019-05-29T11:19:17.602Z,11.89
2019-05-29T11:21:47.971Z,11.99
2019-05-29T11:24:16.304Z,12.11
2019-05-29T11:26:44.784Z,12.25
2019-05-29T11:29:13.275Z,12.35
2019-05-29T11:31:41.799Z,12.35
2019-05-29T11:34:10.282Z,12.37
2019-05-29T11:36:38.957Z,12.48
2019-05-29T11:39:09.248Z,12.63
2019-05-29T11:41:38.145Z,12.86
2019-05-29T11:44:06.707Z,13.08
2019-05-29T11:46:35.419Z,13.09
2019-05-29T11:49:03.985Z,13.16
2019-05-29T11:51:32.472Z,13.24
2019-05-29T11:54:02.455Z,13.12
2019-05-29T11:56:31.151Z,12.88
2019-05-29T11:58:59.736Z,12.76
2019-05-29T12:01:28.300Z,12.74
2019-05-29T12:04:18.160Z,12.68
2019-05-29T12:06:27.034Z,12.58
2019-05-29T12:08:55.813Z,12.54
2019-05-29T12:11:24.416Z,12.53
2019-05-29T12:13:54.170Z,12.56
2019-05-29T12:16:22.888Z,12.40
2019-05-29T12:18:51.569Z,12.36
2019-05-29T12:21:20.116Z,12.38
2019-05-29T12:23:48.594Z,12.46
2019-05-29T12:26:22.652Z,12.54
2019-05-29T12:28:47.335Z,12.58
2019-05-29T12:31:15.848Z,12.64
2019-05-29T12:33:44.516Z,12.67
2019-05-29T12:36:13.007Z,12.88
2019-05-29T12:38:41.484Z,12.94
2019-05-29T12:41:10.005Z,12.89
2019-05-29T12:43:38.764Z,12.83
2019-05-29T12:46:07.419Z,12.85
2019-05-29T12:48:35.906Z,12.88
2019-05-29T12:51:04.531Z,12.86
2019-05-29T12:53:33.063Z,12.83
2019-05-29T12:56:02.565Z,12.82
2019-05-29T12:58:31.077Z,12.81
2019-05-29T13:01:00.694Z,12.84
2019-05-29T13:03:29.342Z,12.93
2019-05-29T13:05:58.198Z,13.00
2019-05-29T13:08:27.011Z,13.00
2019-05-29T13:10:56.203Z,13.16
2019-05-29T13:13:24.744Z,13.39
2019-05-29T13:15:54.595Z,13.45
2019-05-29T13:18:23.206Z,13.44
2019-05-29T13:20:51.723Z,13.38
2019-05-29T13:23:20.177Z,13.39
2019-05-29T13:25:48.671Z,13.46
2019-05-29T13:28:17.197Z,13.53
2019-05-29T13:30:45.686Z,13.60
2019-05-29T13:33:14.206Z,13.54
2019-05-29T13:35:42.682Z,13.47
2019-05-29T13:38:11.154Z,13.43
2019-05-29T13:40:39.749Z,13.39
2019-05-29T13:43:14.984Z,13.41
2019-05-29T13:45:38.530Z,13.38
2019-05-29T13:48:07.476Z,13.36
2019-05-29T13:50:36.123Z,13.41
2019-05-29T13:53:05.472Z,13.47
2019-05-29T13:55:34.108Z,13.49
2019-05-29T13:58:03.806Z,13.48
2019-05-29T14:00:34.705Z,13.41
2019-05-29T14:03:04.600Z,13.37
2019-05-29T14:05:33.455Z,13.42
2019-05-29T14:08:02.770Z,13.46
2019-05-29T14:10:31.454Z,13.50
2019-05-29T14:13:00.936Z,13.53
2019-05-29T14:15:29.625Z,13.66
2019-05-29T14:17:58.220Z,13.72
2019-05-29T14:20:26.671Z,13.76
2019-05-29T14:22:55.176Z,13.86
2019-05-29T14:25:23.872Z,13.84
2019-05-29T14:27:52.364Z,13.75
2019-05-29T14:30:21.216Z,13.73
2019-05-29T14:32:49.721Z,13.62
2019-05-29T14:35:18.421Z,13.51
2019-05-29T14:37:46.968Z,13.37
2019-05-29T14:40:17.207Z,13.30
2019-05-29T14:42:45.783Z,13.21
2019-05-29T14:45:14.633Z,13.13
2019-05-29T14:47:43.123Z,13.10
2019-05-29T14:50:13.577Z,13.07
2019-05-29T14:52:42.043Z,12.98
2019-05-29T14:55:16.113Z,12.94
2019-05-29T14:57:41.399Z,12.82
2019-05-29T15:00:24.343Z,12.88
2019-05-29T15:02:44.824Z,12.89
2019-05-29T15:05:14.965Z,12.87
2019-05-29T15:07:43.792Z,12.88
2019-05-29T15:10:24.969Z,12.84
2019-05-29T15:12:42.968Z,12.80
2019-05-29T15:15:14.265Z,12.75
2019-05-29T15:17:42.125Z,12.71
2019-05-29T15:20:12.593Z,12.70
2019-05-29T15:22:41.761Z,12.69
2019-05-29T15:25:18.434Z,12.70
2019-05-29T15:27:40.922Z,12.66
2019-05-29T15:30:11.855Z,12.59
2019-05-29T15:32:40.903Z,12.57
2019-05-29T15:35:13.816Z,12.56
2019-05-29T15:37:40.119Z,12.54
2019-05-29T15:40:11.024Z,12.54
2019-05-29T15:42:39.526Z,12.49
2019-05-29T15:45:09.881Z,12.40
2019-05-29T15:47:38.485Z,12.36
2019-05-29T15:50:09.157Z,12.41
2019-05-29T15:52:37.886Z,12.42
2019-05-29T15:55:22.457Z,12.41
2019-05-29T15:57:38.978Z,12.43
2019-05-29T16:00:15.654Z,12.40
2019-05-29T16:02:48.327Z,12.40
2019-05-29T16:05:15.498Z,12.40
2019-05-29T16:07:44.336Z,12.40
2019-05-29T16:10:18.600Z,12.43
2019-05-29T16:12:45.823Z,12.46
2019-05-29T16:15:15.480Z,12.47
2019-05-29T16:17:44.038Z,12.46
2019-05-29T16:20:12.649Z,12.45
2019-05-29T16:22:41.280Z,12.45
2019-05-29T16:25:10.926Z,12.47
2019-05-29T16:27:39.413Z,12.46
2019-05-29T16:30:13.452Z,12.44
2019-05-29T16:32:42.200Z,12.39
2019-05-29T16:35:11.136Z,12.34
2019-05-29T16:37:39.564Z,12.26
2019-05-29T16:40:16.068Z,12.19
2019-05-29T16:42:44.825Z,12.16
2019-05-29T16:45:14.356Z,12.14
2019-05-29T16:47:42.861Z,12.12
2019-05-29T16:50:13.110Z,12.08
2019-05-29T16:52:41.600Z,12.07
2019-05-29T16:55:10.791Z,12.06
2019-05-29T16:57:39.446Z,12.06
2019-05-29T17:00:13.567Z,12.03
2019-05-29T17:02:42.441Z,12.00
2019-05-29T17:05:11.309Z,11.95
2019-05-29T17:07:39.786Z,11.87
2019-05-29T17:10:09.221Z,11.77
2019-05-29T17:12:37.740Z,11.66
2019-05-29T17:15:09.572Z,11.58
2019-05-29T17:17:38.118Z,11.52
2019-05-29T17:20:10.323Z,11.53
2019-05-29T17:22:38.912Z,11.53
2019-05-29T17:25:08.064Z,11.51
2019-05-29T17:27:36.649Z,11.53
2019-05-29T17:30:07.669Z,11.48
2019-05-29T17:32:36.258Z,11.42
2019-05-29T17:35:06.959Z,11.42
2019-05-29T17:37:35.535Z,11.38
2019-05-29T17:40:06.619Z,11.43
2019-05-29T17:42:35.132Z,11.38
2019-05-29T17:45:05.078Z,11.38
2019-05-29T17:47:33.556Z,11.36
2019-05-29T17:50:02.149Z,11.31
2019-05-29T17:52:30.661Z,11.27
2019-05-29T17:54:59.140Z,11.25
2019-05-29T17:57:27.621Z,11.22
2019-05-29T17:59:56.117Z,11.22
2019-05-29T18:02:24.726Z,11.22
2019-05-29T18:04:53.239Z,11.20
2019-05-29T18:07:22.649Z,11.19
2019-05-29T18:09:51.241Z,11.19
2019-05-29T18:12:20.860Z,11.20
2019-05-29T18:14:49.449Z,11.21
2019-05-29T18:17:17.952Z,11.22
2019-05-29T18:19:47.019Z,11.24
2019-05-29T18:22:15.515Z,11.22
2019-05-29T18:24:44.002Z,11.21
2019-05-29T18:27:12.595Z,11.21
2019-05-29T18:29:41.096Z,11.22
2019-05-29T18:32:09.596Z,11.25
2019-05-29T18:34:38.114Z,11.33
2019-05-29T18:37:06.685Z,11.45
2019-05-29T18:39:35.303Z,11.44
2019-05-29T18:42:03.790Z,11.39
2019-05-29T18:44:33.071Z,11.36
2019-05-29T18:47:01.538Z,11.34
2019-05-29T18:49:30.019Z,11.26
2019-05-29T18:52:00.429Z,11.19
2019-05-29T18:54:29.898Z,11.14
2019-05-29T18:57:14.648Z,11.17
2019-05-29T18:59:29.591Z,11.21
2019-05-29T19:01:58.154Z,11.21
2019-05-29T19:04:27.621Z,11.18
2019-05-29T19:06:56.179Z,11.13
2019-05-29T19:09:25.660Z,11.14
2019-05-29T19:11:54.119Z,11.14
2019-05-29T19:14:23.930Z,11.12
2019-05-29T19:16:52.454Z,11.12
2019-05-29T19:19:22.056Z,11.15
2019-05-29T19:21:50.607Z,11.08
2019-05-29T19:24:19.161Z,11.04
2019-05-29T19:26:47.657Z,11.00
2019-05-29T19:29:16.223Z,11.00
2019-05-29T19:31:44.852Z,11.01
2019-05-29T19:34:13.429Z,11.00
2019-05-29T19:36:41.921Z,11.00
2019-05-29T19:39:10.494Z,10.99
2019-05-29T19:41:38.988Z,10.98
2019-05-29T19:44:07.613Z,10.95
2019-05-29T19:46:52.559Z,10.96
2019-05-29T19:49:06.476Z,10.95
2019-05-29T19:51:35.447Z,10.97
2019-05-29T19:54:04.025Z,10.90
2019-05-29T19:56:32.530Z,10.86
2019-05-29T19:59:01.016Z,10.84
2019-05-29T20:01:34.136Z,10.85
2019-05-29T20:03:59.733Z,10.86
2019-05-29T20:06:28.861Z,10.88
2019-05-29T20:08:57.522Z,10.90
2019-05-29T20:11:27.567Z,10.94
2019-05-29T20:13:56.174Z,10.96
2019-05-29T20:16:24.692Z,10.96
2019-05-29T20:18:53.558Z,10.91
2019-05-29T20:21:22.069Z,10.85
2019-05-29T20:23:50.564Z,10.80
2019-05-29T20:26:19.061Z,10.78
2019-05-29T20:28:47.562Z,10.77
2019-05-29T20:31:16.089Z,10.79
2019-05-29T20:33:44.590Z,10.79
2019-05-29T20:36:13.071Z,10.76
2019-05-29T20:38:41.572Z,10.74
2019-05-29T20:41:10.094Z,10.71
2019-05-29T20:43:39.760Z,10.72
2019-05-29T20:46:08.344Z,10.73
2019-05-29T20:48:36.859Z,10.74
2019-05-29T20:51:05.506Z,10.76
2019-05-29T20:53:35.273Z,10.77
2019-05-29T20:56:03.865Z,10.80
2019-05-29T20:58:33.684Z,10.81
2019-05-29T21:01:03.284Z,10.79
2019-05-29T21:03:32.333Z,10.80
2019-05-29T21:06:00.794Z,10.81
2019-05-29T21:08:29.354Z,10.81
2019-05-29T21:10:57.869Z,10.75
2019-05-29T21:13:26.464Z,10.70
2019-05-29T21:15:54.975Z,10.71
2019-05-29T21:18:23.498Z,10.68
2019-05-29T21:20:52.004Z,10.61
2019-05-29T21:23:20.497Z,10.61
2019-05-29T21:25:48.998Z,10.60
2019-05-29T21:28:17.506Z,10.58
2019-05-29T21:30:46.084Z,10.53
2019-05-29T21:33:14.592Z,10.54
2019-05-29T21:35:44.267Z,10.49
2019-05-29T21:38:12.766Z,10.46
2019-05-29T21:40:42.443Z,10.41
2019-05-29T21:43:11.048Z,10.36
2019-05-29T21:45:40.954Z,10.40
2019-05-29T21:48:09.559Z,10.44
2019-05-29T21:50:39.103Z,10.42
2019-05-29T21:53:07.764Z,10.39
2019-05-29T21:55:37.490Z,10.34
2019-05-29T21:58:06.191Z,10.32
2019-05-29T22:00:44.419Z,10.28
2019-05-29T22:03:13.051Z,10.18
2019-05-29T22:05:42.712Z,10.09
2019-05-29T22:08:11.353Z,10.11
2019-05-29T22:10:40.000Z,10.14
2019-05-29T22:13:08.527Z,10.17
2019-05-29T22:15:37.104Z,10.18
2019-05-29T22:18:06.047Z,10.21
2019-05-29T22:20:34.630Z,10.24
2019-05-29T22:23:03.166Z,10.24
2019-05-29T22:25:34.416Z,10.25
2019-05-29T22:28:01.989Z,10.23
2019-05-29T22:30:30.639Z,10.25
2019-05-29T22:32:59.578Z,10.27
2019-05-29T22:35:28.194Z,10.28
2019-05-29T22:37:57.725Z,10.28
2019-05-29T22:40:26.398Z,10.25
2019-05-29T22:42:55.577Z,10.20
2019-05-29T22:45:24.228Z,10.16
2019-05-29T22:47:53.699Z,10.17
2019-05-29T22:50:22.394Z,10.20
2019-05-29T22:52:51.783Z,10.18
2019-05-29T22:55:20.325Z,10.17
2019-05-29T22:57:48.843Z,10.13
2019-05-29T23:00:18.528Z,10.12
2019-05-29T23:02:47.031Z,10.11
2019-05-29T23:05:15.866Z,10.12
2019-05-29T23:07:44.332Z,10.10
2019-05-29T23:10:13.193Z,10.08
2019-05-29T23:12:41.671Z,10.09
2019-05-29T23:15:10.405Z,10.11
2019-05-29T23:17:38.910Z,10.15
2019-05-29T23:20:07.944Z,10.11
2019-05-29T23:22:36.546Z,10.04
2019-05-29T23:25:06.221Z,10.01
2019-05-29T23:27:35.547Z,9.97
2019-05-29T23:30:06.569Z,9.92
2019-05-29T23:32:35.149Z,9.95
2019-05-29T23:35:04.215Z,9.98
2019-05-29T23:37:32.718Z,9.97
2019-05-29T23:40:01.357Z,9.93
2019-05-29T23:42:29.869Z,9.90
2019-05-29T23:44:59.429Z,9.86
2019-05-29T23:47:27.940Z,9.82
2019-05-29T23:49:57.551Z,9.78
2019-05-29T23:52:26.079Z,9.72
2019-05-29T23:54:55.696Z,9.68
2019-05-29T23:57:24.242Z,9.68
